Time;durP1;ratioP1;P1;durP2;ratioP2;P2;SDS_P1;SDS_P2;PMS_P1;PMS_P2;Temp;Humidity;BMP_temperature;BMP_pressure;BME280_temperature;BME280_humidity;BME280_pressure;Samples;Min_cycle;Max_cycle;Signal;HPM_P1;HPM_P2
2023/01/22 00:01:42;;;;;;;107.90;44.00;;;;;;;1.03;100.00;101032.85;106513;1259;25494;-57
2023/01/22 00:04:14;;;;;;;93.10;39.90;;;;;;;1.03;100.00;101032.55;106533;1274;22526;-58
2023/01/22 00:06:45;;;;;;;109.30;41.30;;;;;;;1.04;100.00;101028.99;106725;1271;24220;-56
2023/01/22 00:09:15;;;;;;;84.40;36.70;;;;;;;1.04;100.00;101028.84;106565;1267;23004;-56
2023/01/22 00:11:46;;;;;;;75.80;32.60;;;;;;;1.05;100.00;101033.48;106618;1274;25250;-56
2023/01/22 00:14:18;;;;;;;73.40;29.50;;;;;;;1.05;100.00;101033.40;106570;1273;24268;-56
2023/01/22 00:16:49;;;;;;;83.40;35.80;;;;;;;1.04;100.00;101044.71;106612;1274;22534;-57
2023/01/22 00:19:20;;;;;;;100.20;40.30;;;;;;;1.05;100.00;101041.80;106555;1275;24261;-58
2023/01/22 00:21:50;;;;;;;110.00;43.50;;;;;;;1.05;100.00;101043.46;106538;1265;24383;-56
2023/01/22 00:24:21;;;;;;;106.60;43.10;;;;;;;1.05;100.00;101041.09;106501;1260;24276;-59
2023/01/22 00:26:52;;;;;;;104.30;41.40;;;;;;;1.05;100.00;101040.31;106616;1266;22573;-57
2023/01/22 00:29:23;;;;;;;87.80;33.40;;;;;;;1.04;100.00;101047.21;106574;1266;22527;-59
2023/01/22 00:31:54;;;;;;;76.80;29.10;;;;;;;1.04;100.00;101054.68;106606;1265;24315;-56
2023/01/22 00:34:24;;;;;;;84.50;34.30;;;;;;;1.04;100.00;101061.60;106510;1267;22526;-57
2023/01/22 00:36:55;;;;;;;80.40;32.80;;;;;;;1.03;100.00;101070.95;106667;1260;24335;-58
2023/01/22 00:39:26;;;;;;;93.30;39.60;;;;;;;1.03;100.00;101061.77;106655;1260;24339;-58
2023/01/22 00:41:57;;;;;;;92.40;38.00;;;;;;;1.02;100.00;101051.47;106653;1266;22573;-58
2023/01/22 00:44:28;;;;;;;79.20;32.30;;;;;;;1.02;100.00;101059.88;106631;1260;26440;-58
2023/01/22 00:46:59;;;;;;;82.90;34.00;;;;;;;1.03;100.00;101063.10;106627;1270;22539;-57
2023/01/22 00:49:30;;;;;;;72.30;31.10;;;;;;;1.03;100.00;101066.64;106630;1272;22531;-58
2023/01/22 00:52:01;;;;;;;77.80;31.10;;;;;;;1.02;100.00;101073.31;106705;1267;24475;-60
2023/01/22 00:54:32;;;;;;;83.00;32.40;;;;;;;1.03;100.00;101069.77;106504;1272;26537;-58
2023/01/22 00:57:03;;;;;;;74.90;32.70;;;;;;;1.04;100.00;101070.31;106575;1272;24442;-57
2023/01/22 00:59:34;;;;;;;79.20;31.70;;;;;;;1.04;100.00;101071.27;106505;1270;22530;-58
2023/01/22 01:02:06;;;;;;;67.60;29.20;;;;;;;1.04;100.00;101074.86;106514;1274;24249;-57
2023/01/22 01:04:37;;;;;;;70.20;30.80;;;;;;;1.03;100.00;101075.59;106574;1274;22552;-57
2023/01/22 01:07:08;;;;;;;71.70;29.10;;;;;;;1.02;100.00;101076.45;106533;1270;22547;-57
2023/01/22 01:09:39;;;;;;;69.30;28.80;;;;;;;1.01;100.00;101085.80;106552;1274;22526;-57
2023/01/22 01:12:10;;;;;;;70.20;29.80;;;;;;;0.99;100.00;101088.71;106566;1261;24384;-57
2023/01/22 01:14:41;;;;;;;72.10;27.30;;;;;;;0.97;100.00;101088.16;106540;1274;24069;-56
2023/01/22 01:17:12;;;;;;;66.50;26.80;;;;;;;0.96;100.00;101087.37;106552;1272;22676;-58
2023/01/22 01:19:42;;;;;;;67.50;28.50;;;;;;;0.94;100.00;101087.93;106543;1274;22536;-58
2023/01/22 01:22:13;;;;;;;65.50;26.30;;;;;;;0.92;100.00;101093.02;106475;1272;22524;-58
2023/01/22 01:24:44;;;;;;;69.70;27.40;;;;;;;0.92;100.00;101099.23;106504;1274;22526;-57
2023/01/22 01:27:15;;;;;;;60.60;26.30;;;;;;;0.91;100.00;101105.99;106528;1270;22533;-58
2023/01/22 01:29:46;;;;;;;63.80;25.50;;;;;;;0.91;100.00;101109.28;106569;1274;22527;-58
2023/01/22 01:32:17;;;;;;;62.50;26.30;;;;;;;0.90;100.00;101107.71;106559;1274;24258;-57
2023/01/22 01:34:48;;;;;;;67.60;27.10;;;;;;;0.88;100.00;101110.70;106651;1267;24351;-55
2023/01/22 01:37:19;;;;;;;63.30;27.90;;;;;;;0.88;100.00;101112.98;106512;1274;22535;-59
2023/01/22 01:39:51;;;;;;;71.80;31.00;;;;;;;0.88;100.00;101111.40;106543;1274;25502;-59
2023/01/22 01:42:32;;;;;;;68.30;28.20;;;;;;;0.88;100.00;101107.88;106835;1266;22527;-58
2023/01/22 01:45:25;;;;;;;64.10;26.20;;;;;;;0.89;100.00;101111.65;106605;1274;24390;-58
2023/01/22 01:48:03;;;;;;;72.80;27.90;;;;;;;0.88;100.00;101108.90;106601;1274;22549;-57
2023/01/22 01:50:36;;;;;;;69.70;26.40;;;;;;;0.86;100.00;101109.22;106667;1274;23012;-55
2023/01/22 01:53:08;;;;;;;70.70;29.30;;;;;;;0.86;100.00;101114.87;106509;1272;22579;-57
2023/01/22 01:55:41;;;;;;;71.00;28.10;;;;;;;0.87;100.00;101114.94;106547;1267;25440;-55
2023/01/22 01:58:20;;;;;;;60.30;26.60;;;;;;;0.88;100.00;101116.73;106546;1272;22547;-57
2023/01/22 02:00:55;;;;;;;71.20;30.30;;;;;;;0.87;100.00;101122.02;106630;1274;22528;-55
2023/01/22 02:03:28;;;;;;;71.60;29.20;;;;;;;0.88;100.00;101126.10;106613;1267;22528;-58
2023/01/22 02:05:59;;;;;;;70.20;28.80;;;;;;;0.87;100.00;101126.02;106583;1274;25711;-57
2023/01/22 02:08:30;;;;;;;67.80;28.00;;;;;;;0.87;100.00;101122.88;106566;1272;25693;-58
2023/01/22 02:11:01;;;;;;;69.40;29.00;;;;;;;0.88;100.00;101123.90;106665;1274;25346;-56
2023/01/22 02:13:35;;;;;;;66.70;29.60;;;;;;;0.87;100.00;101126.16;106639;1274;23139;-56
2023/01/22 02:16:09;;;;;;;65.60;28.10;;;;;;;0.87;100.00;101131.27;106619;1267;22750;-57
2023/01/22 02:18:40;;;;;;;64.40;26.80;;;;;;;0.87;100.00;101129.63;106509;1274;24260;-59
2023/01/22 02:21:38;;;;;;;76.10;31.20;;;;;;;0.87;100.00;101132.45;106508;1272;22519;-57
2023/01/22 02:24:13;;;;;;;80.40;32.00;;;;;;;0.87;100.00;101134.27;106650;1272;26211;-58
2023/01/22 02:26:45;;;;;;;79.90;33.80;;;;;;;0.86;100.00;101135.36;106787;1274;25382;-55
2023/01/22 02:29:16;;;;;;;82.40;34.00;;;;;;;0.84;100.00;101136.94;106661;1274;24268;-59
2023/01/22 02:31:47;;;;;;;72.00;30.20;;;;;;;0.84;100.00;101140.08;106553;1266;24371;-59
2023/01/22 02:34:18;;;;;;;70.40;30.20;;;;;;;0.86;100.00;101144.40;106592;1267;22525;-57
2023/01/22 02:36:49;;;;;;;69.00;29.30;;;;;;;0.87;100.00;101146.83;106511;1269;25507;-57
2023/01/22 02:39:20;;;;;;;82.00;32.10;;;;;;;0.87;100.00;101146.20;106557;1274;25383;-57
2023/01/22 02:41:51;;;;;;;74.50;31.60;;;;;;;0.86;100.00;101146.44;106564;1274;22530;-55
2023/01/22 02:44:21;;;;;;;71.60;31.00;;;;;;;0.85;100.00;101147.14;106558;1274;25368;-55
2023/01/22 02:46:52;;;;;;;78.00;31.60;;;;;;;0.86;100.00;101145.33;106552;1274;24391;-57
2023/01/22 02:49:23;;;;;;;72.00;29.30;;;;;;;0.87;100.00;101146.13;106524;1274;25287;-59
2023/01/22 02:51:54;;;;;;;67.20;30.30;;;;;;;0.88;100.00;101145.27;106566;1274;24266;-57
2023/01/22 02:54:25;;;;;;;70.10;28.40;;;;;;;0.88;100.00;101146.20;106523;1272;22664;-57
2023/01/22 02:56:56;;;;;;;65.10;27.30;;;;;;;0.87;100.00;101145.96;106559;1274;24409;-57
2023/01/22 02:59:28;;;;;;;70.70;29.00;;;;;;;0.84;100.00;101143.60;106577;1274;24377;-55
2023/01/22 03:01:58;;;;;;;72.50;29.40;;;;;;;0.83;100.00;101150.91;106541;1274;24238;-58
2023/01/22 03:04:29;;;;;;;72.20;29.90;;;;;;;0.79;100.00;101150.20;106428;1274;195656;-55
2023/01/22 03:07:00;;;;;;;69.40;29.30;;;;;;;0.78;100.00;101149.02;106508;1259;22578;-58
2023/01/22 03:09:32;;;;;;;70.20;29.30;;;;;;;0.77;100.00;101152.79;106543;1272;25594;-58
2023/01/22 03:12:03;;;;;;;71.00;27.20;;;;;;;0.78;100.00;101150.20;106601;1274;22528;-56
2023/01/22 03:23:00;;;;;;;66.40;27.20;;;;;;;0.77;100.00;101159.63;106559;1274;24263;-58
2023/01/22 03:25:32;;;;;;;66.40;26.90;;;;;;;0.75;100.00;101162.54;106566;1272;25365;-59
2023/01/22 03:28:15;;;;;;;69.20;28.10;;;;;;;0.74;100.00;101163.31;106564;1264;24084;-55
2023/01/22 03:30:46;;;;;;;76.40;29.90;;;;;;;0.75;100.00;101161.58;106651;1267;24310;-58
2023/01/22 03:33:17;;;;;;;66.70;26.40;;;;;;;0.75;100.00;101170.92;106724;1267;24236;-57
2023/01/22 03:35:47;;;;;;;69.80;28.60;;;;;;;0.74;100.00;101166.69;106707;1274;22531;-56
2023/01/22 03:38:18;;;;;;;68.00;27.80;;;;;;;0.74;100.00;101164.72;106534;1272;22576;-57
2023/01/22 03:40:49;;;;;;;68.80;27.60;;;;;;;0.71;100.00;101158.20;106577;1274;24234;-56
2023/01/22 03:43:20;;;;;;;73.00;30.50;;;;;;;0.71;100.00;101161.02;106643;1274;22610;-59
2023/01/22 03:45:51;;;;;;;65.20;27.10;;;;;;;0.73;100.00;101167.54;106737;1267;24257;-57
2023/01/22 03:48:22;;;;;;;67.90;27.60;;;;;;;0.73;100.00;101169.59;106594;1267;22571;-58
2023/01/22 03:50:53;;;;;;;69.60;28.50;;;;;;;0.75;100.00;101169.83;106576;1274;25363;-57
2023/01/22 03:53:24;;;;;;;64.30;27.50;;;;;;;0.75;100.00;101170.14;106574;1261;22530;-57
2023/01/22 03:56:03;;;;;;;70.40;29.20;;;;;;;0.75;100.00;101175.32;106610;1259;25623;-58
2023/01/22 03:58:35;;;;;;;60.20;25.80;;;;;;;0.75;100.00;101171.86;106641;1274;25362;-59
2023/01/22 04:01:08;;;;;;;65.70;27.80;;;;;;;0.74;100.00;101170.70;106661;1274;24225;-55
2023/01/22 04:03:39;;;;;;;73.20;28.90;;;;;;;0.75;100.00;101168.19;106555;1274;26583;-57
2023/01/22 04:06:12;;;;;;;61.70;26.70;;;;;;;0.74;100.00;101170.06;106691;1259;22523;-58
2023/01/22 04:08:44;;;;;;;67.40;26.80;;;;;;;0.70;100.00;101172.64;106629;1274;22534;-58
2023/01/22 04:11:16;;;;;;;65.50;26.60;;;;;;;0.69;100.00;101178.84;106560;1263;23163;-57
2023/01/22 04:13:47;;;;;;;64.20;25.80;;;;;;;0.71;100.00;101185.36;106584;1267;24309;-58
2023/01/22 04:16:18;;;;;;;65.40;25.60;;;;;;;0.70;100.00;101190.06;106560;1266;22520;-56
2023/01/22 04:18:49;;;;;;;64.70;26.30;;;;;;;0.72;100.00;101194.77;106550;1261;25369;-58
2023/01/22 04:21:19;;;;;;;67.70;26.20;;;;;;;0.73;100.00;101196.83;106571;1267;22653;-58
2023/01/22 04:23:50;;;;;;;70.70;28.50;;;;;;;0.73;100.00;101189.20;106606;1274;22962;-58
2023/01/22 04:26:21;;;;;;;58.40;26.00;;;;;;;0.74;100.00;101190.09;106586;1260;22522;-56
2023/01/22 04:28:52;;;;;;;66.80;25.20;;;;;;;0.76;100.00;101188.36;106685;1274;24286;-57
2023/01/22 04:31:23;;;;;;;65.00;26.30;;;;;;;0.76;100.00;101186.79;106554;1272;24259;-57
2023/01/22 04:33:54;;;;;;;59.70;24.60;;;;;;;0.77;100.00;101187.56;106834;1267;22530;-58
2023/01/22 04:36:25;;;;;;;63.90;25.60;;;;;;;0.76;100.00;101187.81;106545;1274;24266;-57
2023/01/22 04:38:56;;;;;;;58.90;25.00;;;;;;;0.75;100.00;101185.92;106578;1274;22546;-58
2023/01/22 04:41:27;;;;;;;59.90;26.60;;;;;;;0.75;100.00;101186.70;106546;1267;24263;-59
2023/01/22 04:43:58;;;;;;;60.60;24.90;;;;;;;0.75;100.00;101181.68;106565;1270;22546;-58
2023/01/22 04:46:29;;;;;;;56.80;23.20;;;;;;;0.76;100.00;101184.83;106622;1274;25386;-58
2023/01/22 04:48:59;;;;;;;56.30;23.30;;;;;;;0.75;100.00;101188.27;106514;1267;22684;-63
2023/01/22 04:51:30;;;;;;;59.40;23.50;;;;;;;0.75;100.00;101186.71;106533;1267;22530;-64
2023/01/22 04:54:01;;;;;;;53.50;22.70;;;;;;;0.75;100.00;101190.33;106639;1274;25342;-58
2023/01/22 04:56:32;;;;;;;56.70;23.20;;;;;;;0.74;100.00;101190.17;106579;1268;22534;-57
2023/01/22 04:59:03;;;;;;;58.60;22.60;;;;;;;0.74;100.00;101194.31;106553;1274;22536;-58
2023/01/22 05:01:34;;;;;;;53.70;22.30;;;;;;;0.73;100.00;101197.07;106561;1274;22614;-58
2023/01/22 05:04:05;;;;;;;44.80;16.50;;;;;;;0.73;100.00;101200.98;106575;1274;24209;-57
2023/01/22 05:06:36;;;;;;;51.20;19.50;;;;;;;0.72;100.00;101202.01;106686;1267;22528;-57
2023/01/22 05:09:06;;;;;;;50.60;19.70;;;;;;;0.70;100.00;101205.92;106562;1267;22550;-57
2023/01/22 05:11:37;;;;;;;53.10;22.50;;;;;;;0.71;100.00;101213.94;106560;1274;22524;-58
2023/01/22 05:14:08;;;;;;;50.40;19.30;;;;;;;0.72;100.00;101225.09;106653;1274;22534;-55
2023/01/22 05:16:39;;;;;;;37.90;16.20;;;;;;;0.70;100.00;101225.48;106665;1267;25372;-58
2023/01/22 05:19:10;;;;;;;37.70;14.30;;;;;;;0.70;100.00;101226.83;106606;1267;24218;-57
2023/01/22 05:21:41;;;;;;;33.30;12.50;;;;;;;0.70;100.00;101226.98;106684;1274;22609;-58
2023/01/22 05:24:13;;;;;;;33.80;12.90;;;;;;;0.70;99.98;101230.19;106528;1267;24391;-58
2023/01/22 05:26:43;;;;;;;30.20;11.80;;;;;;;0.69;100.00;101231.06;106660;1274;22524;-59
2023/01/22 05:29:14;;;;;;;29.70;12.80;;;;;;;0.71;100.00;101237.02;106571;1273;24252;-58
2023/01/22 05:31:45;;;;;;;27.60;11.10;;;;;;;0.71;99.98;101247.40;106665;1270;24301;-59
2023/01/22 05:34:16;;;;;;;30.60;10.90;;;;;;;0.73;99.90;101252.02;106585;1263;22540;-58
2023/01/22 05:36:47;;;;;;;31.20;12.30;;;;;;;0.73;99.83;101256.52;106538;1268;24352;-57
2023/01/22 05:39:19;;;;;;;23.40;9.10;;;;;;;0.73;99.59;101258.24;106756;1274;22539;-57
2023/01/22 05:41:50;;;;;;;24.30;8.80;;;;;;;0.71;99.13;101256.50;106585;1274;22573;-57
2023/01/22 05:44:21;;;;;;;24.60;8.90;;;;;;;0.71;99.34;101256.11;106763;1271;24391;-58
2023/01/22 05:46:52;;;;;;;23.10;8.20;;;;;;;0.71;99.45;101263.73;106801;1273;24256;-58
2023/01/22 05:49:23;;;;;;;23.60;8.10;;;;;;;0.71;99.05;101257.13;106588;1274;25363;-58
2023/01/22 05:51:54;;;;;;;20.20;6.90;;;;;;;0.70;99.15;101254.14;106546;1267;22536;-58
2023/01/22 05:54:25;;;;;;;19.20;6.20;;;;;;;0.70;99.17;101250.05;106595;1261;25548;-56
2023/01/22 05:56:56;;;;;;;17.00;5.70;;;;;;;0.71;98.90;101248.03;106654;1263;24361;-58
2023/01/22 05:59:27;;;;;;;18.80;7.20;;;;;;;0.71;99.01;101250.54;106792;1270;22625;-58
2023/01/22 06:01:58;;;;;;;18.30;6.40;;;;;;;0.73;99.07;101251.55;106682;1267;24259;-57
2023/01/22 06:04:30;;;;;;;19.80;6.30;;;;;;;0.74;98.86;101253.54;106548;1271;24380;-59
2023/01/22 06:07:01;;;;;;;18.90;5.80;;;;;;;0.75;98.88;101257.61;106589;1274;24240;-59
2023/01/22 06:09:32;;;;;;;21.40;7.00;;;;;;;0.73;98.88;101257.22;106533;1267;24335;-58
2023/01/22 06:12:03;;;;;;;20.70;6.50;;;;;;;0.74;98.86;101257.39;106567;1274;24451;-55
2023/01/22 06:14:33;;;;;;;19.60;6.40;;;;;;;0.75;99.02;101257.77;106578;1274;24328;-56
2023/01/22 06:17:04;;;;;;;20.70;7.00;;;;;;;0.77;99.18;101264.23;106654;1270;22615;-58
2023/01/22 06:19:35;;;;;;;17.90;5.70;;;;;;;0.76;98.84;101258.24;106670;1274;24259;-58
2023/01/22 06:22:06;;;;;;;19.00;6.80;;;;;;;0.77;98.70;101256.67;106577;1274;24321;-56
2023/01/22 06:24:37;;;;;;;20.30;7.20;;;;;;;0.78;98.78;101263.04;106539;1272;22661;-55
2023/01/22 06:27:08;;;;;;;20.80;7.70;;;;;;;0.77;98.82;101268.07;106640;1273;25464;-58
2023/01/22 06:29:38;;;;;;;23.80;8.10;;;;;;;0.79;98.88;101273.26;106706;1274;24327;-57
2023/01/22 06:32:09;;;;;;;21.00;7.00;;;;;;;0.79;98.81;101269.73;106571;1264;22531;-58
2023/01/22 06:34:40;;;;;;;21.20;7.50;;;;;;;0.82;98.87;101278.52;106550;1261;24269;-57
2023/01/22 06:37:11;;;;;;;20.20;6.90;;;;;;;0.83;99.02;101280.73;106620;1274;24253;-57
2023/01/22 06:39:42;;;;;;;20.60;7.60;;;;;;;0.82;98.60;101281.91;106558;1260;24347;-57
2023/01/22 06:42:13;;;;;;;24.00;7.80;;;;;;;0.83;98.68;101279.46;106601;1260;24348;-58
2023/01/22 06:44:44;;;;;;;32.50;11.80;;;;;;;0.83;98.53;101276.17;106599;1273;25241;-55
2023/01/22 06:47:14;;;;;;;24.70;9.10;;;;;;;0.83;98.61;101277.58;106574;1267;25504;-59
2023/01/22 06:49:45;;;;;;;28.00;9.80;;;;;;;0.83;98.75;101280.33;106539;1267;23013;-59
2023/01/22 06:52:16;;;;;;;24.00;9.70;;;;;;;0.83;98.48;101286.46;106572;1269;24397;-58
2023/01/22 06:54:47;;;;;;;25.80;9.40;;;;;;;0.80;98.44;101292.66;106584;1274;22992;-57
2023/01/22 06:57:18;;;;;;;28.70;10.80;;;;;;;0.77;98.32;101292.73;106803;1274;24257;-58
2023/01/22 06:59:49;;;;;;;29.60;10.60;;;;;;;0.77;98.65;101299.95;106642;1274;22573;-57
2023/01/22 07:02:21;;;;;;;28.80;11.20;;;;;;;0.78;98.74;101301.52;106632;1260;22531;-58
2023/01/22 07:04:52;;;;;;;30.50;11.90;;;;;;;0.79;98.81;101304.42;106516;1272;22663;-58
2023/01/22 07:07:23;;;;;;;27.30;11.30;;;;;;;0.80;98.79;101303.19;106651;1274;24380;-55
2023/01/22 07:09:54;;;;;;;31.40;12.40;;;;;;;0.79;98.72;101306.55;106677;1259;22527;-58
2023/01/22 07:12:25;;;;;;;32.80;13.40;;;;;;;0.78;98.67;101312.52;106585;1260;26753;-58
2023/01/22 07:14:56;;;;;;;34.10;14.50;;;;;;;0.79;98.66;101318.81;106577;1274;22528;-57
2023/01/22 07:17:27;;;;;;;33.60;13.20;;;;;;;0.76;98.71;101322.34;106865;1266;22534;-58
2023/01/22 07:19:58;;;;;;;37.80;15.20;;;;;;;0.76;98.78;101327.29;106560;1261;24283;-58
2023/01/22 07:22:30;;;;;;;36.10;15.00;;;;;;;0.76;98.87;101329.02;106518;1274;24400;-57
2023/01/22 07:25:00;;;;;;;38.90;15.90;;;;;;;0.77;99.00;101327.59;106580;1270;24418;-58
2023/01/22 07:27:33;;;;;;;37.80;16.60;;;;;;;0.78;99.15;101334.52;106485;1274;25314;-58
2023/01/22 07:30:05;;;;;;;41.40;17.70;;;;;;;0.78;99.18;101335.61;106690;1274;22625;-58
2023/01/22 07:32:37;;;;;;;40.10;17.30;;;;;;;0.77;99.11;101335.52;106664;1268;25600;-56
2023/01/22 07:35:09;;;;;;;45.80;20.80;;;;;;;0.76;99.24;101337.33;106674;1263;22618;-57
2023/01/22 07:37:40;;;;;;;44.50;19.80;;;;;;;0.77;99.30;101337.65;106704;1261;25794;-59
2023/01/22 07:40:13;;;;;;;53.00;21.30;;;;;;;0.78;99.53;101344.24;106665;1274;22523;-56
2023/01/22 07:42:44;;;;;;;48.80;20.40;;;;;;;0.80;99.48;101350.70;106649;1260;26247;-58
2023/01/22 07:45:18;;;;;;;50.80;21.40;;;;;;;0.83;99.60;101351.50;106727;1267;25035;-57
2023/01/22 07:47:54;;;;;;;46.20;20.20;;;;;;;0.86;99.75;101352.20;106800;1274;24265;-59
2023/01/22 07:50:27;;;;;;;51.80;21.80;;;;;;;0.86;99.63;101357.86;106702;1259;22531;-57
2023/01/22 07:52:59;;;;;;;50.10;21.50;;;;;;;0.86;99.60;101365.48;106578;1267;22534;-55
2023/01/22 07:55:31;;;;;;;53.10;23.50;;;;;;;0.87;99.67;101367.77;106555;1261;22685;-58
2023/01/22 07:58:04;;;;;;;53.70;21.90;;;;;;;0.89;99.73;101375.08;106682;1271;22914;-56
2023/01/22 08:00:36;;;;;;;51.80;20.40;;;;;;;0.92;99.71;101374.14;106658;1264;22524;-58
2023/01/22 08:03:09;;;;;;;50.90;22.10;;;;;;;0.92;99.70;101373.13;106721;1274;22530;-56
2023/01/22 08:05:42;;;;;;;53.00;21.00;;;;;;;0.93;99.71;101371.49;106628;1250;22514;-57
2023/01/22 08:08:19;;;;;;;56.30;22.80;;;;;;;0.93;99.58;101366.15;106849;1259;22523;-57
2023/01/22 08:10:50;;;;;;;63.90;23.00;;;;;;;0.91;99.50;101358.60;106660;1270;25344;-58
2023/01/22 08:13:21;;;;;;;59.20;22.60;;;;;;;0.91;99.61;101358.91;106606;1259;22641;-59
2023/01/22 08:15:53;;;;;;;55.80;23.40;;;;;;;0.90;99.52;101356.78;106621;1270;25483;-57
2023/01/22 08:18:24;;;;;;;51.10;21.90;;;;;;;0.90;99.62;101361.98;106577;1266;22533;-59
2023/01/22 08:20:55;;;;;;;48.90;21.00;;;;;;;0.92;99.74;101360.40;106579;1268;24262;-57
2023/01/22 08:23:27;;;;;;;45.60;19.00;;;;;;;0.95;99.76;101355.23;106511;1251;25575;-59
2023/01/22 08:26:02;;;;;;;46.40;19.60;;;;;;;0.97;99.64;101358.54;106686;1274;22542;-56
2023/01/22 08:28:33;;;;;;;42.90;17.50;;;;;;;0.98;99.42;101367.42;106901;1269;25354;-55
2023/01/22 08:31:05;;;;;;;50.60;20.00;;;;;;;0.98;99.31;101368.29;106578;1274;22737;-58
2023/01/22 08:33:36;;;;;;;46.60;19.80;;;;;;;0.99;99.53;101372.53;106733;1263;22554;-58
2023/01/22 08:36:08;;;;;;;55.50;22.50;;;;;;;1.02;99.57;101376.55;106534;1262;22639;-57
2023/01/22 08:38:39;;;;;;;69.00;31.80;;;;;;;1.05;99.47;101376.23;106596;1271;22546;-57
2023/01/22 08:41:10;;;;;;;78.80;36.00;;;;;;;1.08;99.45;101373.83;106501;1274;22647;-58
2023/01/22 08:43:41;;;;;;;56.20;23.30;;;;;;;1.11;99.44;101379.10;106616;1267;24208;-58
2023/01/22 08:46:11;;;;;;;49.70;19.60;;;;;;;1.12;99.28;101382.89;106518;1267;22551;-57
2023/01/22 08:48:43;;;;;;;47.50;19.70;;;;;;;1.12;99.18;101388.92;106489;1274;22577;-58
2023/01/22 08:51:14;;;;;;;58.50;24.90;;;;;;;1.14;99.35;101397.34;106539;1264;25251;-58
2023/01/22 08:53:45;;;;;;;60.80;27.40;;;;;;;1.14;99.27;101402.54;106730;1275;22537;-58
2023/01/22 08:56:16;;;;;;;57.20;26.40;;;;;;;1.15;99.25;101410.70;106541;1264;24379;-58
2023/01/22 08:58:50;;;;;;;100.40;52.80;;;;;;;1.16;99.33;101409.77;106442;1259;22605;-58
2023/01/22 09:01:21;;;;;;;70.60;35.90;;;;;;;1.17;99.32;101403.08;106598;1259;22546;-58
2023/01/22 09:03:52;;;;;;;48.40;23.30;;;;;;;1.17;99.20;101406.94;106474;1259;24373;-58
2023/01/22 09:06:23;;;;;;;54.40;23.30;;;;;;;1.19;99.33;101408.20;106228;1269;25447;-58
2023/01/22 09:08:54;;;;;;;48.00;21.10;;;;;;;1.20;99.28;101402.24;106455;1264;22651;-56
2023/01/22 09:11:25;;;;;;;48.70;21.00;;;;;;;1.20;99.20;101404.11;106429;1270;22579;-58
2023/01/22 09:13:56;;;;;;;54.70;24.90;;;;;;;1.23;99.36;101410.10;106450;1259;22526;-62
2023/01/22 09:16:28;;;;;;;100.80;47.90;;;;;;;1.24;99.34;101414.66;106692;1269;24373;-60
2023/01/22 09:18:59;;;;;;;88.00;45.00;;;;;;;1.27;99.42;101427.25;106626;1275;22979;-59
2023/01/22 09:21:30;;;;;;;61.00;29.10;;;;;;;1.29;99.41;101427.49;106379;1275;22562;-59
2023/01/22 09:24:00;;;;;;;50.40;23.00;;;;;;;1.29;99.51;101423.58;106487;1272;27172;-57
2023/01/22 09:26:32;;;;;;;44.40;19.60;;;;;;;1.32;99.50;101421.77;106479;1274;22586;-60
2023/01/22 09:29:04;;;;;;;48.60;22.90;;;;;;;1.34;99.42;101419.10;106648;1274;22537;-58
2023/01/22 09:31:36;;;;;;;59.30;26.30;;;;;;;1.36;99.50;101417.54;106503;1274;22536;-59
2023/01/22 09:34:07;;;;;;;86.00;40.00;;;;;;;1.38;99.57;101422.02;106597;1267;22523;-59
2023/01/22 09:36:38;;;;;;;125.70;57.90;;;;;;;1.39;99.44;101418.80;106457;1271;25407;-58
2023/01/22 09:39:10;;;;;;;192.00;80.90;;;;;;;1.40;99.43;101422.81;106548;1260;24192;-60
2023/01/22 09:41:45;;;;;;;215.50;90.80;;;;;;;1.41;99.31;101423.38;106623;1259;25357;-57
2023/01/22 09:44:22;;;;;;;152.40;73.80;;;;;;;1.43;99.49;101426.13;106672;1274;25419;-58
2023/01/22 09:46:57;;;;;;;169.30;80.30;;;;;;;1.43;99.42;101425.11;107019;1269;24249;-62
2023/01/22 09:49:32;;;;;;;69.90;33.60;;;;;;;1.45;99.55;101430.45;106674;1272;24212;-66
2023/01/22 09:52:05;;;;;;;89.60;39.30;;;;;;;1.45;99.41;101431.80;106775;1263;22599;-58
2023/01/22 09:54:36;;;;;;;118.00;53.10;;;;;;;1.46;99.44;101434.08;106695;1259;22527;-55
2023/01/22 09:57:12;;;;;;;186.40;79.30;;;;;;;1.46;99.50;101435.02;106560;1267;24373;-58
2023/01/22 09:59:48;;;;;;;125.20;55.10;;;;;;;1.47;99.65;101434.94;106592;1273;22656;-60
2023/01/22 10:02:28;;;;;;;109.60;48.00;;;;;;;1.46;99.68;101426.86;106559;1274;22527;-58
2023/01/22 10:05:04;;;;;;;76.70;34.50;;;;;;;1.46;99.72;101424.34;106631;1267;22526;-57
2023/01/22 10:07:39;;;;;;;57.20;23.00;;;;;;;1.45;99.75;101420.23;106869;1259;24265;-58
2023/01/22 10:10:21;;;;;;;42.70;20.60;;;;;;;1.43;99.83;101422.13;106653;1264;24370;-58
2023/01/22 10:12:56;;;;;;;51.70;23.10;;;;;;;1.42;99.85;101422.30;106486;1270;26562;-56
2023/01/22 10:15:27;;;;;;;50.50;21.70;;;;;;;1.40;99.71;101421.33;106642;1266;22542;-58
2023/01/22 10:17:58;;;;;;;48.50;22.00;;;;;;;1.39;99.82;101425.42;106533;1273;22556;-58
2023/01/22 10:20:31;;;;;;;48.10;21.70;;;;;;;1.39;99.88;101425.25;106656;1267;25309;-57
2023/01/22 10:23:08;;;;;;;50.10;22.90;;;;;;;1.39;99.95;101429.51;106775;1269;24269;-62
2023/01/22 10:25:47;;;;;;;49.50;23.40;;;;;;;1.39;100.00;101420.06;106684;1274;24269;-58
2023/01/22 10:28:27;;;;;;;52.90;24.40;;;;;;;1.38;99.92;101416.13;106551;1269;22521;-58
2023/01/22 10:30:58;;;;;;;102.70;49.90;;;;;;;1.37;99.91;101409.37;106441;1269;22603;-56
2023/01/22 10:33:29;;;;;;;142.50;68.70;;;;;;;1.39;100.00;101406.86;106430;1266;22542;-56
2023/01/22 10:36:06;;;;;;;144.30;71.40;;;;;;;1.37;99.91;101407.55;106590;1273;22575;-57
2023/01/22 10:38:37;;;;;;;125.40;64.40;;;;;;;1.37;99.93;101417.14;106754;1273;22556;-56
2023/01/22 10:41:17;;;;;;;87.10;41.50;;;;;;;1.35;99.95;101419.27;105955;1267;24259;-59
2023/01/22 10:43:48;;;;;;;59.40;28.30;;;;;;;1.36;100.00;101419.98;106505;1269;23012;-58
2023/01/22 10:46:23;;;;;;;51.60;23.60;;;;;;;1.35;99.99;101426.96;106229;1259;25456;-58
2023/01/22 10:49:02;;;;;;;52.60;23.30;;;;;;;1.35;100.00;101428.61;106597;1259;25372;-58
2023/01/22 10:51:36;;;;;;;57.00;23.30;;;;;;;1.34;100.00;101430.13;106452;1267;22571;-57
2023/01/22 10:54:21;;;;;;;52.20;24.40;;;;;;;1.35;100.00;101429.02;106530;1269;24238;-69
2023/01/22 10:56:53;;;;;;;56.60;24.50;;;;;;;1.35;100.00;101430.90;106526;1262;22556;-58
2023/01/22 10:59:27;;;;;;;53.10;23.30;;;;;;;1.34;99.99;101425.80;106829;1262;24269;-58
2023/01/22 11:02:01;;;;;;;71.90;28.80;;;;;;;1.33;100.00;101427.52;106426;1269;22527;-58
2023/01/22 11:04:34;;;;;;;67.50;26.40;;;;;;;1.33;100.00;101430.50;106573;1260;24248;-58
2023/01/22 11:07:09;;;;;;;49.20;22.70;;;;;;;1.30;99.98;101431.42;106601;1266;22686;-56
2023/01/22 11:09:44;;;;;;;46.80;20.90;;;;;;;1.29;100.00;101432.59;106533;1269;23328;-57
2023/01/22 11:12:21;;;;;;;53.10;21.60;;;;;;;1.28;100.00;101433.77;106530;1266;22609;-60
2023/01/22 11:15:01;;;;;;;50.60;21.60;;;;;;;1.27;100.00;101434.41;106589;1274;22555;-55
2023/01/22 11:17:38;;;;;;;56.70;23.20;;;;;;;1.27;99.99;101437.63;106647;1259;22799;-56
2023/01/22 11:20:16;;;;;;;56.40;24.80;;;;;;;1.29;100.00;101437.96;106666;1262;24259;-58
2023/01/22 11:22:57;;;;;;;56.80;23.70;;;;;;;1.31;100.00;101440.87;106968;1270;22591;-58
2023/01/22 11:25:35;;;;;;;55.10;24.30;;;;;;;1.31;100.00;101438.42;106369;1253;22680;-58
2023/01/22 11:28:16;;;;;;;53.10;21.20;;;;;;;1.33;100.00;101430.27;106445;1258;25258;-58
2023/01/22 11:31:16;;;;;;;44.00;19.60;;;;;;;1.33;100.00;101424.05;106394;1259;23009;-58
2023/01/22 11:34:16;;;;;;;57.60;23.90;;;;;;;1.33;100.00;101419.98;106364;1269;22541;-57
2023/01/22 11:36:52;;;;;;;45.30;19.10;;;;;;;1.35;99.89;101414.70;106541;1274;22659;-68